createdAt,value
2019-05-07T00:02:19.462Z,8.00
2019-05-07T00:04:49.187Z,8.00
2019-05-07T00:07:17.934Z,8.00
2019-05-07T00:09:46.672Z,8.00
2019-05-07T00:12:15.114Z,8.00
2019-05-07T00:14:57.343Z,8.10
2019-05-07T00:17:14.537Z,8.10
2019-05-07T00:19:43.365Z,8.10
2019-05-07T00:22:12.642Z,8.10
2019-05-07T00:24:42.593Z,8.10
2019-05-07T00:27:13.144Z,8.10
2019-05-07T00:29:42.893Z,8.10
2019-05-07T00:32:12.199Z,8.10
2019-05-07T00:34:42.680Z,8.10
2019-05-07T00:37:22.141Z,8.10
2019-05-07T00:39:52.860Z,8.00
2019-05-07T00:42:23.413Z,8.00
2019-05-07T00:45:14.249Z,8.00
2019-05-07T00:47:33.119Z,8.00
2019-05-07T00:50:06.761Z,8.00
2019-05-07T00:52:35.550Z,8.00
2019-05-07T00:55:06.397Z,8.00
2019-05-07T00:57:34.862Z,8.00
2019-05-07T01:00:05.024Z,8.00
2019-05-07T01:02:33.874Z,8.00
2019-05-07T01:05:03.003Z,8.00
2019-05-07T01:07:32.544Z,7.90
2019-05-07T01:10:02.175Z,7.90
2019-05-07T01:12:32.850Z,7.90
2019-05-07T01:15:02.874Z,7.90
2019-05-07T01:17:33.617Z,7.80
2019-05-07T01:20:03.061Z,7.80
2019-05-07T01:22:33.025Z,7.80
2019-05-07T01:25:02.368Z,7.80
2019-05-07T01:27:32.174Z,7.80
2019-05-07T01:30:02.594Z,7.80
2019-05-07T01:32:33.097Z,7.70
2019-05-07T01:35:03.432Z,7.70
2019-05-07T01:37:34.848Z,7.70
2019-05-07T01:40:04.194Z,7.70
2019-05-07T01:42:36.417Z,7.80
2019-05-07T01:45:05.606Z,7.70
2019-05-07T01:47:34.324Z,7.70
2019-05-07T01:50:03.252Z,7.70
2019-05-07T01:52:33.361Z,7.70
2019-05-07T01:55:03.280Z,7.70
2019-05-07T01:57:32.576Z,7.70
2019-05-07T02:00:02.547Z,7.80
2019-05-07T02:02:36.212Z,7.80
2019-05-07T02:05:25.274Z,7.80
2019-05-07T02:07:55.349Z,7.80
2019-05-07T02:10:28.434Z,7.80
2019-05-07T02:12:56.902Z,7.80
2019-05-07T02:15:25.617Z,7.80
2019-05-07T02:17:54.101Z,7.80
2019-05-07T02:20:22.905Z,7.80
2019-05-07T02:22:53.224Z,7.80
2019-05-07T02:25:22.213Z,7.80
2019-05-07T02:27:52.786Z,7.80
2019-05-07T02:30:23.930Z,7.80
2019-05-07T02:32:53.961Z,7.80
2019-05-07T02:35:23.453Z,7.80
2019-05-07T02:37:56.957Z,7.80
2019-05-07T02:40:33.897Z,7.80
2019-05-07T02:43:03.170Z,7.80
2019-05-07T02:45:46.512Z,7.80
2019-05-07T02:48:16.673Z,7.80
2019-05-07T02:50:56.173Z,7.80
2019-05-07T02:53:26.578Z,7.80
2019-05-07T02:55:59.610Z,7.80
2019-05-07T02:58:28.083Z,7.80
2019-05-07T03:00:56.843Z,7.80
2019-05-07T03:03:25.305Z,7.80
2019-05-07T03:05:54.091Z,7.80
2019-05-07T03:08:26.935Z,7.80
2019-05-07T03:10:52.964Z,7.80
2019-05-07T03:13:23.653Z,7.80
2019-05-07T03:15:53.981Z,7.80
2019-05-07T03:18:23.648Z,7.80
2019-05-07T03:20:53.928Z,7.70
2019-05-07T03:23:24.242Z,7.70
2019-05-07T03:25:59.894Z,7.70
2019-05-07T03:28:28.675Z,7.70
2019-05-07T03:30:58.825Z,7.70
2019-05-07T03:33:46.507Z,7.70
2019-05-07T03:36:16.598Z,7.70
2019-05-07T03:38:43.932Z,7.60
2019-05-07T03:41:12.949Z,7.60
2019-05-07T03:43:43.421Z,7.60
2019-05-07T03:46:14.437Z,7.60
2019-05-07T03:48:44.399Z,7.60
2019-05-07T03:51:14.521Z,7.60
2019-05-07T03:53:43.829Z,7.70
2019-05-07T03:56:13.323Z,7.70
2019-05-07T03:58:43.252Z,7.70
2019-05-07T04:01:13.257Z,7.60
2019-05-07T04:03:44.651Z,7.60
2019-05-07T04:06:13.036Z,7.60
2019-05-07T04:08:43.551Z,7.60
2019-05-07T04:11:13.896Z,7.50
2019-05-07T04:13:44.198Z,7.50
2019-05-07T04:16:13.535Z,7.50
2019-05-07T04:18:43.670Z,7.50
2019-05-07T04:21:14.012Z,7.40
2019-05-07T04:23:43.937Z,7.40
2019-05-07T04:26:17.163Z,7.40
2019-05-07T04:28:59.879Z,7.40
2019-05-07T04:31:33.913Z,7.30
2019-05-07T04:34:03.655Z,7.30
2019-05-07T04:36:34.368Z,7.30
2019-05-07T04:39:03.327Z,7.30
2019-05-07T04:41:33.436Z,7.20
2019-05-07T04:44:03.534Z,7.20
2019-05-07T04:46:34.106Z,7.20
2019-05-07T04:49:03.634Z,7.20
2019-05-07T04:51:34.513Z,7.20
2019-05-07T04:54:04.200Z,7.20
2019-05-07T04:56:33.680Z,7.20
2019-05-07T04:59:03.631Z,7.20
2019-05-07T05:01:35.251Z,7.20
2019-05-07T05:04:20.516Z,7.20
2019-05-07T05:06:35.250Z,7.20
2019-05-07T05:09:05.664Z,7.20
2019-05-07T05:11:34.437Z,7.20
2019-05-07T05:14:07.780Z,7.30
2019-05-07T05:16:35.474Z,7.30
2019-05-07T05:19:04.442Z,7.30
2019-05-07T05:21:34.921Z,7.30
2019-05-07T05:24:12.561Z,7.30
2019-05-07T05:26:41.927Z,7.30
2019-05-07T05:29:12.156Z,7.30
2019-05-07T05:31:42.130Z,7.30
2019-05-07T05:34:13.037Z,7.30
2019-05-07T05:36:42.630Z,7.30
2019-05-07T05:39:13.314Z,7.30
2019-05-07T05:41:44.478Z,7.30
2019-05-07T05:44:16.540Z,7.40
2019-05-07T05:46:47.119Z,7.40
2019-05-07T05:49:17.169Z,7.40
2019-05-07T05:51:52.489Z,7.40
2019-05-07T05:54:25.831Z,7.50
2019-05-07T05:57:05.228Z,7.60
2019-05-07T05:59:48.203Z,7.70
2019-05-07T06:02:12.086Z,7.80
2019-05-07T06:04:43.348Z,7.80
2019-05-07T06:07:31.943Z,7.90
2019-05-07T06:10:02.630Z,7.90
2019-05-07T06:12:38.801Z,7.90
2019-05-07T06:15:32.740Z,8.00
2019-05-07T06:18:23.910Z,8.10
2019-05-07T06:20:58.086Z,8.20
2019-05-07T06:23:35.260Z,8.30
2019-05-07T06:26:12.678Z,8.40
2019-05-07T06:28:42.515Z,8.60
2019-05-07T06:31:12.686Z,8.80
2019-05-07T06:33:42.938Z,9.00
2019-05-07T06:36:12.506Z,9.10
2019-05-07T06:38:43.541Z,9.30
2019-05-07T06:41:13.681Z,9.50
2019-05-07T06:43:43.853Z,9.60
2019-05-07T06:46:14.081Z,9.80
2019-05-07T06:48:45.961Z,10.00
2019-05-07T06:51:13.205Z,10.10
2019-05-07T06:53:42.230Z,10.20
2019-05-07T06:56:12.200Z,10.30
2019-05-07T06:58:44.998Z,10.40
2019-05-07T07:01:17.929Z,10.40
2019-05-07T07:04:02.342Z,10.40
2019-05-07T07:06:48.200Z,10.50
2019-05-07T07:09:22.119Z,10.70
2019-05-07T07:11:58.479Z,11.00
2019-05-07T07:14:27.508Z,11.20
2019-05-07T07:16:55.956Z,11.50
2019-05-07T07:19:24.832Z,11.70
2019-05-07T07:21:53.539Z,11.80
2019-05-07T07:24:22.290Z,11.80
2019-05-07T07:26:52.846Z,11.80
2019-05-07T07:29:23.469Z,11.90
2019-05-07T07:31:53.559Z,11.90
2019-05-07T07:34:22.896Z,11.80
2019-05-07T07:37:08.260Z,11.80
2019-05-07T07:39:26.302Z,11.80
2019-05-07T07:41:59.659Z,11.90
2019-05-07T07:44:28.450Z,11.90
2019-05-07T07:46:57.270Z,12.10
2019-05-07T07:49:25.733Z,12.20
2019-05-07T07:51:54.264Z,12.40
2019-05-07T07:54:23.104Z,12.50
2019-05-07T07:57:05.241Z,12.60
2019-05-07T07:59:38.582Z,12.80
2019-05-07T08:02:22.895Z,13.10
2019-05-07T08:04:52.738Z,13.20
2019-05-07T08:07:22.850Z,13.30
2019-05-07T08:09:52.163Z,13.50
2019-05-07T08:12:22.157Z,13.70
2019-05-07T08:14:51.895Z,13.60
2019-05-07T08:17:22.348Z,13.30
2019-05-07T08:19:51.959Z,13.30
2019-05-07T08:22:22.639Z,13.40
2019-05-07T08:24:51.915Z,13.20
2019-05-07T08:27:22.228Z,13.10
2019-05-07T08:29:52.468Z,13.10
2019-05-07T08:32:25.224Z,13.00
2019-05-07T08:34:55.342Z,13.10
2019-05-07T08:37:24.538Z,13.20
2019-05-07T08:39:53.167Z,13.30
2019-05-07T08:42:22.802Z,13.20
2019-05-07T08:45:05.204Z,13.30
2019-05-07T08:47:35.652Z,13.40
2019-05-07T08:50:06.245Z,13.60
2019-05-07T08:52:35.025Z,13.70
2019-05-07T08:55:04.663Z,13.80
2019-05-07T08:57:33.337Z,14.00
2019-05-07T09:00:04.622Z,14.10
2019-05-07T09:02:32.782Z,14.00
2019-05-07T09:05:02.926Z,14.00
2019-05-07T09:07:32.164Z,13.90
2019-05-07T09:10:02.536Z,14.00
2019-05-07T09:12:34.075Z,14.00
2019-05-07T09:15:02.598Z,13.90
2019-05-07T09:17:32.737Z,13.70
2019-05-07T09:20:02.956Z,13.60
2019-05-07T09:22:32.344Z,13.80
2019-05-07T09:25:03.074Z,14.10
2019-05-07T09:27:39.264Z,14.20
2019-05-07T09:30:22.173Z,14.10
2019-05-07T09:32:52.413Z,14.20
2019-05-07T09:35:32.159Z,14.10
2019-05-07T09:38:00.714Z,14.10
2019-05-07T09:40:29.233Z,14.20
2019-05-07T09:42:57.679Z,14.40
2019-05-07T09:45:26.463Z,14.60
2019-05-07T09:47:55.381Z,14.70
2019-05-07T09:50:23.903Z,14.50
2019-05-07T09:52:52.398Z,14.40
2019-05-07T09:55:23.145Z,14.50
2019-05-07T09:57:52.803Z,14.70
2019-05-07T10:00:22.735Z,14.80
2019-05-07T10:02:52.832Z,14.60
2019-05-07T10:05:22.017Z,14.30
2019-05-07T10:07:52.621Z,14.00
2019-05-07T10:10:22.296Z,13.90
2019-05-07T10:13:07.433Z,13.80
2019-05-07T10:15:39.159Z,13.70
2019-05-07T10:18:15.329Z,13.90
2019-05-07T10:20:44.404Z,14.00
2019-05-07T10:23:23.501Z,14.20
2019-05-07T10:25:53.438Z,14.30
2019-05-07T10:28:22.762Z,14.40
2019-05-07T10:30:52.162Z,14.30
2019-05-07T10:33:22.836Z,14.20
2019-05-07T10:35:52.933Z,14.30
2019-05-07T10:38:22.369Z,14.60
2019-05-07T10:40:51.306Z,15.00
2019-05-07T10:43:22.228Z,15.30
2019-05-07T10:46:02.361Z,15.70
2019-05-07T10:48:36.148Z,15.90
2019-05-07T10:51:06.541Z,16.00
2019-05-07T10:53:35.172Z,15.80
2019-05-07T10:56:05.182Z,16.00
2019-05-07T10:58:34.018Z,15.90
2019-05-07T11:01:03.126Z,15.70
2019-05-07T11:03:32.398Z,15.70
2019-05-07T11:06:01.400Z,15.70
2019-05-07T11:08:29.926Z,15.70
2019-05-07T11:10:58.746Z,15.80
2019-05-07T11:13:27.264Z,16.20
2019-05-07T11:16:02.427Z,16.40
2019-05-07T11:18:33.128Z,16.30
2019-05-07T11:21:03.048Z,16.10
2019-05-07T11:23:32.706Z,16.10
2019-05-07T11:26:02.620Z,16.10
2019-05-07T11:28:32.409Z,16.30
2019-05-07T11:31:02.030Z,16.70
2019-05-07T11:33:32.647Z,17.50
2019-05-07T11:36:02.082Z,18.30
2019-05-07T11:38:33.154Z,18.80
2019-05-07T11:41:02.311Z,18.90
2019-05-07T11:43:32.868Z,18.80
2019-05-07T11:46:13.071Z,18.20
2019-05-07T11:48:43.393Z,17.50
2019-05-07T11:51:16.309Z,17.00
2019-05-07T11:54:03.147Z,16.70
2019-05-07T11:56:32.769Z,16.50
2019-05-07T11:59:02.694Z,16.40
2019-05-07T12:01:43.485Z,16.40
2019-05-07T12:04:02.083Z,16.20
2019-05-07T12:06:32.145Z,16.00
2019-05-07T12:09:02.998Z,15.90
2019-05-07T12:11:32.193Z,15.80
2019-05-07T12:14:02.070Z,15.60
2019-05-07T12:16:32.020Z,15.40
2019-05-07T12:19:08.213Z,15.30
2019-05-07T12:21:36.709Z,15.20
2019-05-07T12:24:05.769Z,15.20
2019-05-07T12:26:35.937Z,15.00
2019-05-07T12:29:06.283Z,14.90
2019-05-07T12:31:36.423Z,14.80
2019-05-07T12:34:22.888Z,14.60
2019-05-07T12:36:52.452Z,14.50
2019-05-07T12:39:21.917Z,14.30
2019-05-07T12:41:52.421Z,14.10
2019-05-07T12:44:22.183Z,13.90
2019-05-07T12:46:52.433Z,13.90
2019-05-07T12:49:22.121Z,13.80
2019-05-07T12:51:52.411Z,14.00
2019-05-07T12:54:22.750Z,14.30
2019-05-07T12:56:52.048Z,14.60
2019-05-07T12:59:21.835Z,15.00
2019-05-07T13:01:58.036Z,15.50
2019-05-07T13:04:28.451Z,15.70
2019-05-07T13:06:58.562Z,15.40
2019-05-07T13:09:27.037Z,15.30
2019-05-07T13:11:56.504Z,15.20
2019-05-07T13:14:24.952Z,15.40
2019-05-07T13:16:53.565Z,15.60
2019-05-07T13:19:22.603Z,15.70
2019-05-07T13:21:52.778Z,15.90
2019-05-07T13:24:22.860Z,16.10
2019-05-07T13:26:51.957Z,16.10
2019-05-07T13:29:22.143Z,16.20
2019-05-07T13:31:54.178Z,16.60
2019-05-07T13:34:23.468Z,16.90
2019-05-07T13:36:56.282Z,17.10
2019-05-07T13:39:39.978Z,17.40
2019-05-07T13:42:12.548Z,17.40
2019-05-07T13:44:47.970Z,17.10
2019-05-07T13:47:27.511Z,16.90
2019-05-07T13:49:56.974Z,17.00
2019-05-07T13:52:26.327Z,17.20
2019-05-07T13:54:56.244Z,17.30
2019-05-07T13:57:25.987Z,17.50
2019-05-07T13:59:55.233Z,17.60
2019-05-07T14:02:28.200Z,17.60
2019-05-07T14:04:56.850Z,17.70
2019-05-07T14:07:27.054Z,17.80
2019-05-07T14:09:55.628Z,17.80
2019-05-07T14:12:24.497Z,17.70
2019-05-07T14:14:53.241Z,17.80
2019-05-07T14:17:23.855Z,18.00
2019-05-07T14:19:54.008Z,18.30
2019-05-07T14:22:22.839Z,18.40
2019-05-07T14:24:52.925Z,18.70
2019-05-07T14:27:21.905Z,19.00
2019-05-07T14:29:52.133Z,19.30
2019-05-07T14:32:25.500Z,19.70
2019-05-07T14:35:07.986Z,19.90
2019-05-07T14:37:38.453Z,20.10
2019-05-07T14:40:07.632Z,20.20
2019-05-07T14:42:38.532Z,20.00
2019-05-07T14:45:07.935Z,19.90
2019-05-07T14:47:37.001Z,19.70
2019-05-07T14:50:08.050Z,19.70
2019-05-07T14:52:36.678Z,19.70
2019-05-07T14:55:06.935Z,19.60
2019-05-07T14:57:36.576Z,19.50
2019-05-07T15:00:07.205Z,19.70
2019-05-07T15:02:36.202Z,19.90
2019-05-07T15:05:07.893Z,20.10
2019-05-07T15:07:37.059Z,19.90
2019-05-07T15:10:10.467Z,19.20
2019-05-07T15:12:39.830Z,19.10
2019-05-07T15:15:12.610Z,19.10
2019-05-07T15:17:45.978Z,19.00
2019-05-07T15:20:15.134Z,19.10
2019-05-07T15:22:49.427Z,19.30
2019-05-07T15:25:16.132Z,19.60
2019-05-07T15:27:45.779Z,19.70
2019-05-07T15:30:15.675Z,19.80
2019-05-07T15:32:45.602Z,19.70
2019-05-07T15:35:15.830Z,19.70
2019-05-07T15:37:44.616Z,19.40
2019-05-07T15:40:15.122Z,19.10
2019-05-07T15:42:43.648Z,18.90
2019-05-07T15:45:15.640Z,18.80
2019-05-07T15:47:48.785Z,18.60
2019-05-07T15:50:17.480Z,18.50
2019-05-07T15:52:58.101Z,18.70
2019-05-07T15:55:18.381Z,18.90
2019-05-07T15:57:52.103Z,19.10
2019-05-07T16:00:22.937Z,19.40
2019-05-07T16:02:58.154Z,19.50
2019-05-07T16:05:26.952Z,19.40
2019-05-07T16:07:56.951Z,19.30
2019-05-07T16:10:25.819Z,19.20
2019-05-07T16:12:54.659Z,18.80
2019-05-07T16:15:24.438Z,18.40
2019-05-07T16:17:56.092Z,18.00
2019-05-07T16:20:24.572Z,17.40
2019-05-07T16:23:10.875Z,17.00
2019-05-07T16:25:28.201Z,16.70
2019-05-07T16:27:58.638Z,16.50
2019-05-07T16:30:27.524Z,16.80
2019-05-07T16:32:56.347Z,17.20
2019-05-07T16:35:25.197Z,17.60
2019-05-07T16:37:53.711Z,17.90
2019-05-07T16:40:23.004Z,18.10
2019-05-07T16:42:52.397Z,18.10
2019-05-07T16:45:21.377Z,18.30
2019-05-07T16:47:51.980Z,18.40
2019-05-07T16:50:22.167Z,18.50
2019-05-07T16:52:52.410Z,18.60
2019-05-07T16:55:22.436Z,18.50
2019-05-07T16:58:08.896Z,18.30
2019-05-07T17:00:39.065Z,17.90
2019-05-07T17:03:09.236Z,17.50
2019-05-07T17:05:37.771Z,17.30
2019-05-07T17:08:08.919Z,17.20
2019-05-07T17:10:37.402Z,17.20
2019-05-07T17:13:06.361Z,17.00
2019-05-07T17:15:36.471Z,16.80
2019-05-07T17:18:05.063Z,16.70
2019-05-07T17:20:33.951Z,16.50
2019-05-07T17:23:02.982Z,16.20
2019-05-07T17:25:37.965Z,16.00
2019-05-07T17:28:08.345Z,15.80
2019-05-07T17:30:38.169Z,15.60
2019-05-07T17:33:07.252Z,15.40
2019-05-07T17:35:35.860Z,15.40
2019-05-07T17:38:08.983Z,15.60
2019-05-07T17:40:35.004Z,15.70
2019-05-07T17:43:03.595Z,15.80
2019-05-07T17:45:32.925Z,15.80
2019-05-07T17:48:03.161Z,15.70
2019-05-07T17:50:42.537Z,15.60
2019-05-07T17:53:11.941Z,15.50
2019-05-07T17:55:42.326Z,15.50
2019-05-07T17:58:12.909Z,15.50
2019-05-07T18:00:43.372Z,15.50
2019-05-07T18:03:16.554Z,15.50
2019-05-07T18:05:45.291Z,15.40
2019-05-07T18:08:14.002Z,15.40
2019-05-07T18:10:42.723Z,15.20
2019-05-07T18:13:11.930Z,15.20
2019-05-07T18:15:42.607Z,15.20
2019-05-07T18:18:14.104Z,15.10
2019-05-07T18:20:44.124Z,15.00
2019-05-07T18:23:16.797Z,14.90
2019-05-07T18:25:43.092Z,14.80
2019-05-07T18:28:12.618Z,14.80
2019-05-07T18:30:41.553Z,14.70
2019-05-07T18:33:18.669Z,14.70
2019-05-07T18:35:48.955Z,14.60
2019-05-07T18:38:17.637Z,14.50
2019-05-07T18:40:46.540Z,14.40
2019-05-07T18:43:15.159Z,14.40
2019-05-07T18:45:43.893Z,14.30
2019-05-07T18:48:12.453Z,14.30
2019-05-07T18:50:44.093Z,14.20
2019-05-07T18:53:13.001Z,14.20
2019-05-07T18:55:42.348Z,14.10
2019-05-07T18:58:13.193Z,14.00
2019-05-07T19:00:52.381Z,13.90
2019-05-07T19:03:21.845Z,13.80
2019-05-07T19:05:52.022Z,13.70
2019-05-07T19:08:22.931Z,13.70
2019-05-07T19:10:52.184Z,13.60
2019-05-07T19:13:22.329Z,13.60
2019-05-07T19:15:52.752Z,13.60
2019-05-07T19:18:22.992Z,13.60
2019-05-07T19:20:57.187Z,13.50
2019-05-07T19:23:23.037Z,13.40
2019-05-07T19:25:52.226Z,13.40
2019-05-07T19:28:22.803Z,13.40
2019-05-07T19:30:52.757Z,13.40
2019-05-07T19:33:26.156Z,13.30
2019-05-07T19:35:52.826Z,13.30
2019-05-07T19:38:21.515Z,13.20
2019-05-07T19:40:50.077Z,13.10
2019-05-07T19:43:19.133Z,13.00
2019-05-07T19:45:47.744Z,12.90
2019-05-07T19:48:16.510Z,12.80
2019-05-07T19:50:44.971Z,12.80
2019-05-07T19:53:13.822Z,12.70
2019-05-07T19:56:02.051Z,12.60
2019-05-07T19:58:32.629Z,12.50
2019-05-07T20:01:02.274Z,12.40
2019-05-07T20:03:32.354Z,12.40
2019-05-07T20:06:02.427Z,12.40
2019-05-07T20:08:32.330Z,12.30
2019-05-07T20:11:12.997Z,12.20
2019-05-07T20:13:43.638Z,12.10
2019-05-07T20:16:19.163Z,12.00
2019-05-07T20:18:48.373Z,11.90
2019-05-07T20:21:17.128Z,11.90
2019-05-07T20:23:47.347Z,11.90
2019-05-07T20:26:16.704Z,11.80
2019-05-07T20:28:45.226Z,11.80
2019-05-07T20:31:14.014Z,11.70
2019-05-07T20:33:42.558Z,11.70
2019-05-07T20:36:11.730Z,11.60
2019-05-07T20:38:42.705Z,11.60
2019-05-07T20:41:12.939Z,11.50
2019-05-07T20:43:42.837Z,11.50
2019-05-07T20:46:12.952Z,11.40
2019-05-07T20:48:42.436Z,11.40
2019-05-07T20:51:13.103Z,11.30
2019-05-07T20:53:58.934Z,11.30
2019-05-07T20:56:32.375Z,11.20
2019-05-07T20:59:02.893Z,11.20
2019-05-07T21:01:34.929Z,11.10
2019-05-07T21:04:03.815Z,11.10
2019-05-07T21:06:32.513Z,11.00
2019-05-07T21:09:01.897Z,11.00
2019-05-07T21:11:32.311Z,10.90
2019-05-07T21:14:03.071Z,10.90
2019-05-07T21:16:32.724Z,10.90
2019-05-07T21:19:01.998Z,10.70
2019-05-07T21:21:35.546Z,10.70
2019-05-07T21:24:04.121Z,10.60
2019-05-07T21:26:32.878Z,10.50
2019-05-07T21:29:03.075Z,10.50
2019-05-07T21:31:32.334Z,10.40
2019-05-07T21:34:04.223Z,10.30
2019-05-07T21:36:36.097Z,10.30
2019-05-07T21:39:08.252Z,10.30
2019-05-07T21:41:37.279Z,10.20
2019-05-07T21:44:16.913Z,10.10
2019-05-07T21:47:03.708Z,10.10
2019-05-07T21:49:32.169Z,10.00
2019-05-07T21:52:07.468Z,10.00
2019-05-07T21:54:38.164Z,10.00
2019-05-07T21:57:08.473Z,9.90
2019-05-07T21:59:38.735Z,9.90
2019-05-07T22:02:12.706Z,9.90
2019-05-07T22:04:42.144Z,9.80
2019-05-07T22:07:12.192Z,9.80
2019-05-07T22:09:41.186Z,9.80
2019-05-07T22:12:11.959Z,9.70
2019-05-07T22:14:40.302Z,9.70
2019-05-07T22:17:09.075Z,9.70
2019-05-07T22:19:38.378Z,9.70
2019-05-07T22:22:07.098Z,9.70
2019-05-07T22:24:35.595Z,9.70
2019-05-07T22:27:04.494Z,9.60
2019-05-07T22:29:33.310Z,9.60
2019-05-07T22:32:19.604Z,9.60
2019-05-07T22:34:51.875Z,9.60
2019-05-07T22:37:21.941Z,9.60
2019-05-07T22:39:50.638Z,9.60
2019-05-07T22:42:19.084Z,9.60
2019-05-07T22:44:47.534Z,9.50
2019-05-07T22:47:19.095Z,9.50
2019-05-07T22:49:48.926Z,9.50
2019-05-07T22:52:17.728Z,9.50
2019-05-07T22:54:46.371Z,9.50
2019-05-07T22:57:26.022Z,9.50
2019-05-07T22:59:54.494Z,9.50
2019-05-07T23:02:22.956Z,9.50
2019-05-07T23:04:52.150Z,9.50
2019-05-07T23:07:22.264Z,9.50
2019-05-07T23:09:52.210Z,9.50
2019-05-07T23:12:22.003Z,9.50
2019-05-07T23:14:51.810Z,9.50
2019-05-07T23:17:22.203Z,9.50
2019-05-07T23:19:53.014Z,9.50
2019-05-07T23:22:22.693Z,9.50
2019-05-07T23:24:52.099Z,9.50
2019-05-07T23:27:23.141Z,9.50
2019-05-07T23:29:52.866Z,9.50
2019-05-07T23:32:22.261Z,9.50
2019-05-07T23:34:53.740Z,9.50
2019-05-07T23:37:22.584Z,9.50
2019-05-07T23:39:52.947Z,9.50
2019-05-07T23:42:23.451Z,9.50
2019-05-07T23:44:53.319Z,9.50
2019-05-07T23:47:22.718Z,9.50
2019-05-07T23:49:52.382Z,9.50
2019-05-07T23:52:22.518Z,9.60
2019-05-07T23:54:59.279Z,9.60
2019-05-07T23:57:28.093Z,9.60
2019-05-07T23:59:56.543Z,9.60
